sensor_id;sensor_type;location;lat;lon;timestamp;P1;P2;P0
66195;PMS7003;53000;45.182;5.736;2022-09-09T00:02:04;1.00;1.00;1.00
66195;PMS7003;53000;45.182;5.736;2022-09-09T00:04:40;2.50;2.00;2.00
66195;PMS7003;53000;45.182;5.736;2022-09-09T00:09:43;1.00;1.00;1.00
66195;PMS7003;53000;45.182;5.736;2022-09-09T00:12:12;1.50;1.50;1.50
66195;PMS7003;53000;45.182;5.736;2022-09-09T00:14:57;1.67;1.00;1.00
66195;PMS7003;53000;45.182;5.736;2022-09-09T00:20:20;1.00;1.00;1.00
66195;PMS7003;53000;45.182;5.736;2022-09-09T00:23:12;2.00;2.00;1.67
66195;PMS7003;53000;45.182;5.736;2022-09-09T00:26:00;1.00;1.00;1.00
66195;PMS7003;53000;45.182;5.736;2022-09-09T00:28:33;2.00;1.75;1.00
66195;PMS7003;53000;45.182;5.736;2022-09-09T00:31:13;1.50;1.00;1.00
66195;PMS7003;53000;45.182;5.736;2022-09-09T00:33:43;2.00;1.00;1.00
66195;PMS7003;53000;45.182;5.736;2022-09-09T00:36:12;1.50;1.50;1.25
66195;PMS7003;53000;45.182;5.736;2022-09-09T00:38:42;1.00;1.00;1.00
66195;PMS7003;53000;45.182;5.736;2022-09-09T00:41:24;1.00;1.00;1.00
66195;PMS7003;53000;45.182;5.736;2022-09-09T00:43:56;1.67;1.00;1.00
66195;PMS7003;53000;45.182;5.736;2022-09-09T00:57:14;1.00;1.00;1.00
66195;PMS7003;53000;45.182;5.736;2022-09-09T01:11:44;2.00;2.00;1.00
66195;PMS7003;53000;45.182;5.736;2022-09-09T01:17:11;1.00;1.00;1.00
66195;PMS7003;53000;45.182;5.736;2022-09-09T01:20:02;1.75;1.75;1.00
66195;PMS7003;53000;45.182;5.736;2022-09-09T01:22:34;2.00;2.00;1.25
66195;PMS7003;53000;45.182;5.736;2022-09-09T01:25:19;2.75;1.75;1.75
66195;PMS7003;53000;45.182;5.736;2022-09-09T01:27:59;4.50;3.00;2.75
66195;PMS7003;53000;45.182;5.736;2022-09-09T01:30:27;2.00;1.00;1.00
66195;PMS7003;53000;45.182;5.736;2022-09-09T01:32:54;1.00;1.00;1.00
66195;PMS7003;53000;45.182;5.736;2022-09-09T01:38:06;2.50;2.50;2.00
66195;PMS7003;53000;45.182;5.736;2022-09-09T01:40:32;2.50;1.25;1.00
66195;PMS7003;53000;45.182;5.736;2022-09-09T01:42:58;6.75;6.75;4.75
66195;PMS7003;53000;45.182;5.736;2022-09-09T01:45:23;3.00;3.00;2.75
66195;PMS7003;53000;45.182;5.736;2022-09-09T01:47:50;2.00;2.00;2.00
66195;PMS7003;53000;45.182;5.736;2022-09-09T01:50:18;3.00;2.00;2.00
66195;PMS7003;53000;45.182;5.736;2022-09-09T01:52:45;1.50;1.50;1.00
66195;PMS7003;53000;45.182;5.736;2022-09-09T01:55:40;2.50;2.00;2.00
66195;PMS7003;53000;45.182;5.736;2022-09-09T01:58:18;4.00;3.00;2.00
66195;PMS7003;53000;45.182;5.736;2022-09-09T02:01:24;3.00;3.00;2.75
66195;PMS7003;53000;45.182;5.736;2022-09-09T02:06:56;3.75;3.00;2.25
66195;PMS7003;53000;45.182;5.736;2022-09-09T02:09:24;1.00;0.00;0.00
66195;PMS7003;53000;45.182;5.736;2022-09-09T02:12:11;4.00;4.00;3.00
66195;PMS7003;53000;45.182;5.736;2022-09-09T02:14:41;4.25;2.50;2.25
66195;PMS7003;53000;45.182;5.736;2022-09-09T02:17:11;2.00;2.00;2.00
66195;PMS7003;53000;45.182;5.736;2022-09-09T02:19:48;2.00;2.00;1.50
66195;PMS7003;53000;45.182;5.736;2022-09-09T02:22:20;4.00;3.50;2.50
66195;PMS7003;53000;45.182;5.736;2022-09-09T02:24:49;2.00;2.00;2.00
66195;PMS7003;53000;45.182;5.736;2022-09-09T02:27:18;1.75;1.75;1.50
66195;PMS7003;53000;45.182;5.736;2022-09-09T02:29:46;3.25;3.25;3.00
66195;PMS7003;53000;45.182;5.736;2022-09-09T02:32:15;2.00;1.50;1.50
66195;PMS7003;53000;45.182;5.736;2022-09-09T02:34:53;3.50;3.50;2.75
66195;PMS7003;53000;45.182;5.736;2022-09-09T02:37:25;3.00;3.00;2.75
66195;PMS7003;53000;45.182;5.736;2022-09-09T02:40:00;2.00;2.00;2.00
66195;PMS7003;53000;45.182;5.736;2022-09-09T02:42:27;1.50;1.50;1.50
66195;PMS7003;53000;45.182;5.736;2022-09-09T02:44:52;3.25;3.25;3.00
66195;PMS7003;53000;45.182;5.736;2022-09-09T02:50:02;2.00;2.00;1.75
66195;PMS7003;53000;45.182;5.736;2022-09-09T02:52:32;3.00;3.00;2.25
66195;PMS7003;53000;45.182;5.736;2022-09-09T02:58:04;3.00;3.00;2.25
66195;PMS7003;53000;45.182;5.736;2022-09-09T03:00:33;2.00;2.00;1.75
66195;PMS7003;53000;45.182;5.736;2022-09-09T03:03:01;2.00;2.00;2.00
66195;PMS7003;53000;45.182;5.736;2022-09-09T03:05:28;4.50;3.00;2.75
66195;PMS7003;53000;45.182;5.736;2022-09-09T03:07:53;3.00;3.00;2.00
66195;PMS7003;53000;45.182;5.736;2022-09-09T03:10:19;2.00;2.00;2.00
66195;PMS7003;53000;45.182;5.736;2022-09-09T03:12:44;2.00;2.00;2.00
66195;PMS7003;53000;45.182;5.736;2022-09-09T03:15:09;2.25;2.25;2.00
66195;PMS7003;53000;45.182;5.736;2022-09-09T03:17:35;2.75;2.75;2.00
66195;PMS7003;53000;45.182;5.736;2022-09-09T03:20:02;3.00;2.00;1.33
66195;PMS7003;53000;45.182;5.736;2022-09-09T03:22:31;3.00;2.75;2.25
66195;PMS7003;53000;45.182;5.736;2022-09-09T03:24:56;2.00;2.00;2.00
66195;PMS7003;53000;45.182;5.736;2022-09-09T03:27:22;2.50;2.00;2.00
66195;PMS7003;53000;45.182;5.736;2022-09-09T03:29:47;2.00;2.00;2.00
66195;PMS7003;53000;45.182;5.736;2022-09-09T03:32:15;4.33;2.67;2.33
66195;PMS7003;53000;45.182;5.736;2022-09-09T03:34:42;3.50;3.00;2.00
66195;PMS7003;53000;45.182;5.736;2022-09-09T03:37:08;2.75;2.75;2.00
66195;PMS7003;53000;45.182;5.736;2022-09-09T03:39:33;4.00;3.00;3.00
66195;PMS7003;53000;45.182;5.736;2022-09-09T03:41:58;3.75;3.75;3.50
66195;PMS7003;53000;45.182;5.736;2022-09-09T03:44:24;3.50;3.50;2.50
66195;PMS7003;53000;45.182;5.736;2022-09-09T03:46:49;3.00;3.00;3.00
66195;PMS7003;53000;45.182;5.736;2022-09-09T03:49:15;5.00;3.25;3.00
66195;PMS7003;53000;45.182;5.736;2022-09-09T03:51:40;2.00;2.00;2.00
66195;PMS7003;53000;45.182;5.736;2022-09-09T03:54:06;2.50;2.00;2.00
66195;PMS7003;53000;45.182;5.736;2022-09-09T03:56:35;1.75;1.75;1.75
66195;PMS7003;53000;45.182;5.736;2022-09-09T03:59:01;2.33;2.33;2.33
66195;PMS7003;53000;45.182;5.736;2022-09-09T04:01:28;2.00;2.00;2.00
66195;PMS7003;53000;45.182;5.736;2022-09-09T04:03:53;4.00;4.00;3.00
66195;PMS7003;53000;45.182;5.736;2022-09-09T04:06:20;3.25;2.00;2.00
66195;PMS7003;53000;45.182;5.736;2022-09-09T04:08:46;2.25;2.25;2.25
66195;PMS7003;53000;45.182;5.736;2022-09-09T04:11:14;3.00;2.00;1.75
66195;PMS7003;53000;45.182;5.736;2022-09-09T04:13:40;2.75;2.00;2.00
66195;PMS7003;53000;45.182;5.736;2022-09-09T04:16:07;2.00;2.00;1.75
66195;PMS7003;53000;45.182;5.736;2022-09-09T04:18:35;2.00;2.00;1.75
66195;PMS7003;53000;45.182;5.736;2022-09-09T04:21:01;2.75;2.75;2.25
66195;PMS7003;53000;45.182;5.736;2022-09-09T04:23:27;2.00;2.00;2.00
66195;PMS7003;53000;45.182;5.736;2022-09-09T04:25:56;2.25;1.50;1.50
66195;PMS7003;53000;45.182;5.736;2022-09-09T04:28:24;2.50;2.50;2.50
66195;PMS7003;53000;45.182;5.736;2022-09-09T04:30:51;3.00;3.00;2.00
66195;PMS7003;53000;45.182;5.736;2022-09-09T04:33:17;1.00;1.00;1.00
66195;PMS7003;53000;45.182;5.736;2022-09-09T04:35:47;3.00;2.50;2.00
66195;PMS7003;53000;45.182;5.736;2022-09-09T04:38:13;3.00;2.00;2.00
66195;PMS7003;53000;45.182;5.736;2022-09-09T04:40:42;3.00;2.75;2.00
66195;PMS7003;53000;45.182;5.736;2022-09-09T04:43:19;1.50;1.50;1.00
66195;PMS7003;53000;45.182;5.736;2022-09-09T04:45:49;1.50;1.50;1.25
66195;PMS7003;53000;45.182;5.736;2022-09-09T04:48:18;2.25;2.00;2.00
66195;PMS7003;53000;45.182;5.736;2022-09-09T04:50:59;1.50;1.50;1.00
66195;PMS7003;53000;45.182;5.736;2022-09-09T04:53:26;2.25;2.25;2.00
66195;PMS7003;53000;45.182;5.736;2022-09-09T04:55:53;2.50;2.50;2.50
66195;PMS7003;53000;45.182;5.736;2022-09-09T04:58:26;2.75;2.75;2.50
66195;PMS7003;53000;45.182;5.736;2022-09-09T05:00:52;2.75;2.00;2.00
66195;PMS7003;53000;45.182;5.736;2022-09-09T05:03:17;2.00;2.00;2.00
66195;PMS7003;53000;45.182;5.736;2022-09-09T05:05:42;2.00;2.00;1.75
66195;PMS7003;53000;45.182;5.736;2022-09-09T05:08:08;2.75;2.75;2.25
66195;PMS7003;53000;45.182;5.736;2022-09-09T05:10:34;3.25;1.75;1.75
66195;PMS7003;53000;45.182;5.736;2022-09-09T05:13:02;1.00;1.00;1.00
66195;PMS7003;53000;45.182;5.736;2022-09-09T05:15:28;2.00;2.00;1.75
66195;PMS7003;53000;45.182;5.736;2022-09-09T05:17:56;3.00;2.00;2.00
66195;PMS7003;53000;45.182;5.736;2022-09-09T05:20:25;3.00;3.00;3.00
66195;PMS7003;53000;45.182;5.736;2022-09-09T05:22:55;3.75;2.25;2.00
66195;PMS7003;53000;45.182;5.736;2022-09-09T05:25:21;2.00;2.00;1.50
66195;PMS7003;53000;45.182;5.736;2022-09-09T05:27:47;2.00;2.00;1.50
66195;PMS7003;53000;45.182;5.736;2022-09-09T05:30:12;2.00;2.00;1.75
66195;PMS7003;53000;45.182;5.736;2022-09-09T05:32:38;3.00;2.00;2.00
66195;PMS7003;53000;45.182;5.736;2022-09-09T05:35:03;4.00;3.00;2.75
66195;PMS7003;53000;45.182;5.736;2022-09-09T05:37:30;2.75;2.75;2.50
66195;PMS7003;53000;45.182;5.736;2022-09-09T05:39:56;2.00;2.00;2.00
66195;PMS7003;53000;45.182;5.736;2022-09-09T05:42:21;3.00;3.00;2.75
66195;PMS7003;53000;45.182;5.736;2022-09-09T05:44:46;3.50;2.50;2.00
66195;PMS7003;53000;45.182;5.736;2022-09-09T05:47:12;3.75;2.50;2.00
66195;PMS7003;53000;45.182;5.736;2022-09-09T05:49:37;4.50;3.00;3.00
66195;PMS7003;53000;45.182;5.736;2022-09-09T05:52:02;3.00;3.00;2.25
66195;PMS7003;53000;45.182;5.736;2022-09-09T05:54:28;3.75;3.75;2.75
66195;PMS7003;53000;45.182;5.736;2022-09-09T05:56:54;5.00;2.00;2.00
66195;PMS7003;53000;45.182;5.736;2022-09-09T05:59:20;4.00;4.00;3.00
66195;PMS7003;53000;45.182;5.736;2022-09-09T06:01:45;4.00;4.00;3.00
66195;PMS7003;53000;45.182;5.736;2022-09-09T06:04:11;5.25;4.50;3.75
66195;PMS7003;53000;45.182;5.736;2022-09-09T06:06:37;5.00;5.00;4.00
66195;PMS7003;53000;45.182;5.736;2022-09-09T06:09:04;6.00;4.00;3.00
66195;PMS7003;53000;45.182;5.736;2022-09-09T06:11:35;5.00;5.00;3.25
66195;PMS7003;53000;45.182;5.736;2022-09-09T06:14:03;3.50;3.25;3.00
66195;PMS7003;53000;45.182;5.736;2022-09-09T06:16:29;3.75;2.75;2.00
66195;PMS7003;53000;45.182;5.736;2022-09-09T06:18:57;3.25;3.00;3.00
66195;PMS7003;53000;45.182;5.736;2022-09-09T06:21:24;5.50;3.25;2.50
66195;PMS7003;53000;45.182;5.736;2022-09-09T06:23:51;4.00;3.00;3.00
66195;PMS7003;53000;45.182;5.736;2022-09-09T06:28:48;6.00;4.25;4.00
66195;PMS7003;53000;45.182;5.736;2022-09-09T06:31:16;4.75;4.75;4.50
66195;PMS7003;53000;45.182;5.736;2022-09-09T06:33:46;4.75;4.75;4.00
66195;PMS7003;53000;45.182;5.736;2022-09-09T06:36:16;4.50;4.00;3.00
66195;PMS7003;53000;45.182;5.736;2022-09-09T06:38:43;3.50;3.00;3.00
66195;PMS7003;53000;45.182;5.736;2022-09-09T06:41:11;6.00;5.00;4.00
66195;PMS7003;53000;45.182;5.736;2022-09-09T06:43:38;4.25;4.25;3.00
66195;PMS7003;53000;45.182;5.736;2022-09-09T06:48:31;3.75;3.75;3.00
66195;PMS7003;53000;45.182;5.736;2022-09-09T06:51:04;4.50;3.75;3.00
66195;PMS7003;53000;45.182;5.736;2022-09-09T06:53:36;4.50;4.00;4.00
66195;PMS7003;53000;45.182;5.736;2022-09-09T06:56:24;4.25;3.25;3.25
66195;PMS7003;53000;45.182;5.736;2022-09-09T06:58:57;3.00;3.00;3.00
66195;PMS7003;53000;45.182;5.736;2022-09-09T07:01:25;3.50;3.50;2.50
66195;PMS7003;53000;45.182;5.736;2022-09-09T07:03:54;4.25;3.50;3.00
66195;PMS7003;53000;45.182;5.736;2022-09-09T07:06:26;4.50;3.75;3.00
66195;PMS7003;53000;45.182;5.736;2022-09-09T07:09:06;4.25;4.25;4.00
66195;PMS7003;53000;45.182;5.736;2022-09-09T07:11:36;5.25;4.00;4.00
66195;PMS7003;53000;45.182;5.736;2022-09-09T07:14:04;4.00;3.25;2.50
66195;PMS7003;53000;45.182;5.736;2022-09-09T07:16:29;5.00;4.75;4.00
66195;PMS7003;53000;45.182;5.736;2022-09-09T07:18:58;4.50;3.00;2.75
66195;PMS7003;53000;45.182;5.736;2022-09-09T07:21:24;4.00;4.00;4.00
66195;PMS7003;53000;45.182;5.736;2022-09-09T07:23:51;2.00;2.00;2.00
66195;PMS7003;53000;45.182;5.736;2022-09-09T07:26:18;4.75;4.25;3.75
66195;PMS7003;53000;45.182;5.736;2022-09-09T07:28:45;4.75;3.25;3.00
66195;PMS7003;53000;45.182;5.736;2022-09-09T07:31:18;3.75;3.50;2.50
66195;PMS7003;53000;45.182;5.736;2022-09-09T07:33:45;3.00;3.00;3.00
66195;PMS7003;53000;45.182;5.736;2022-09-09T07:38:41;3.75;3.00;2.75
66195;PMS7003;53000;45.182;5.736;2022-09-09T07:41:10;4.25;4.00;3.00
66195;PMS7003;53000;45.182;5.736;2022-09-09T07:43:41;3.75;3.50;3.00
66195;PMS7003;53000;45.182;5.736;2022-09-09T07:46:07;1.00;1.00;0.00
66195;PMS7003;53000;45.182;5.736;2022-09-09T07:48:34;4.00;4.00;3.00
66195;PMS7003;53000;45.182;5.736;2022-09-09T07:53:34;3.50;3.00;3.00
66195;PMS7003;53000;45.182;5.736;2022-09-09T07:56:08;7.00;4.00;3.00
66195;PMS7003;53000;45.182;5.736;2022-09-09T07:58:37;3.00;3.00;2.75
66195;PMS7003;53000;45.182;5.736;2022-09-09T08:01:10;3.50;3.25;3.25
66195;PMS7003;53000;45.182;5.736;2022-09-09T08:03:38;3.00;3.00;3.00
66195;PMS7003;53000;45.182;5.736;2022-09-09T08:06:05;2.00;2.00;1.75
66195;PMS7003;53000;45.182;5.736;2022-09-09T08:08:33;4.25;3.00;3.00
66195;PMS7003;53000;45.182;5.736;2022-09-09T08:11:04;2.50;2.50;2.25
66195;PMS7003;53000;45.182;5.736;2022-09-09T08:13:30;4.75;4.00;3.25
66195;PMS7003;53000;45.182;5.736;2022-09-09T08:16:03;4.25;3.00;2.25
66195;PMS7003;53000;45.182;5.736;2022-09-09T08:18:29;3.50;3.50;2.50
66195;PMS7003;53000;45.182;5.736;2022-09-09T08:20:55;3.00;3.00;2.25
66195;PMS7003;53000;45.182;5.736;2022-09-09T08:23:20;3.00;3.00;3.00
66195;PMS7003;53000;45.182;5.736;2022-09-09T08:25:46;3.00;3.00;3.00
66195;PMS7003;53000;45.182;5.736;2022-09-09T08:28:13;3.00;3.00;3.00
66195;PMS7003;53000;45.182;5.736;2022-09-09T08:30:39;3.50;3.50;3.00
66195;PMS7003;53000;45.182;5.736;2022-09-09T08:33:04;4.00;3.33;3.00
66195;PMS7003;53000;45.182;5.736;2022-09-09T08:35:30;6.50;3.50;3.00
66195;PMS7003;53000;45.182;5.736;2022-09-09T08:37:57;4.00;3.25;3.00
66195;PMS7003;53000;45.182;5.736;2022-09-09T08:40:24;3.00;3.00;2.00
66195;PMS7003;53000;45.182;5.736;2022-09-09T08:42:55;4.25;4.25;3.75
66195;PMS7003;53000;45.182;5.736;2022-09-09T08:45:29;2.25;2.25;2.00
66195;PMS7003;53000;45.182;5.736;2022-09-09T08:50:47;3.25;3.00;3.00
66195;PMS7003;53000;45.182;5.736;2022-09-09T08:55:59;4.00;3.50;3.00
66195;PMS7003;53000;45.182;5.736;2022-09-09T08:58:29;3.00;2.00;2.00
66195;PMS7003;53000;45.182;5.736;2022-09-09T09:03:48;2.75;2.75;2.00
66195;PMS7003;53000;45.182;5.736;2022-09-09T09:11:45;1.00;1.00;1.00
66195;PMS7003;53000;45.182;5.736;2022-09-09T09:14:23;4.00;2.75;2.00
66195;PMS7003;53000;45.182;5.736;2022-09-09T09:16:56;2.25;2.25;2.25
66195;PMS7003;53000;45.182;5.736;2022-09-09T09:19:24;3.00;1.50;1.50
66195;PMS7003;53000;45.182;5.736;2022-09-09T09:24:52;1.00;1.00;1.00
66195;PMS7003;53000;45.182;5.736;2022-09-09T09:27:25;0.00;0.00;0.00
66195;PMS7003;53000;45.182;5.736;2022-09-09T09:30:04;2.00;0.00;0.00
66195;PMS7003;53000;45.182;5.736;2022-09-09T09:32:40;0.00;0.00;0.00
66195;PMS7003;53000;45.182;5.736;2022-09-09T09:35:13;0.00;0.00;0.00
66195;PMS7003;53000;45.182;5.736;2022-09-09T09:37:39;1.75;0.00;0.00
66195;PMS7003;53000;45.182;5.736;2022-09-09T09:40:13;0.00;0.00;0.00
66195;PMS7003;53000;45.182;5.736;2022-09-09T09:42:53;0.75;0.00;0.00
66195;PMS7003;53000;45.182;5.736;2022-09-09T09:46:04;0.00;0.00;0.00
66195;PMS7003;53000;45.182;5.736;2022-09-09T09:48:10;0.00;0.00;0.00
66195;PMS7003;53000;45.182;5.736;2022-09-09T09:50:53;0.00;0.00;0.00
66195;PMS7003;53000;45.182;5.736;2022-09-09T09:53:21;0.00;0.00;0.00
66195;PMS7003;53000;45.182;5.736;2022-09-09T09:55:55;0.00;0.00;0.00
66195;PMS7003;53000;45.182;5.736;2022-09-09T09:58:32;0.00;0.00;0.00
66195;PMS7003;53000;45.182;5.736;2022-09-09T10:01:45;0.00;0.00;0.00
66195;PMS7003;53000;45.182;5.736;2022-09-09T10:06:51;0.00;0.00;0.00
66195;PMS7003;53000;45.182;5.736;2022-09-09T10:09:26;0.00;0.00;0.00
66195;PMS7003;53000;45.182;5.736;2022-09-09T10:14:51;0.75;0.00;0.00
66195;PMS7003;53000;45.182;5.736;2022-09-09T10:26:24;0.00;0.00;0.00
66195;PMS7003;53000;45.182;5.736;2022-09-09T10:29:22;0.00;0.00;0.00
66195;PMS7003;53000;45.182;5.736;2022-09-09T10:40:11;1.00;0.00;0.00
66195;PMS7003;53000;45.182;5.736;2022-09-09T10:42:44;0.75;0.00;0.00
66195;PMS7003;53000;45.182;5.736;2022-09-09T10:45:18;0.50;0.00;0.00
66195;PMS7003;53000;45.182;5.736;2022-09-09T10:50:29;0.00;0.00;0.00
66195;PMS7003;53000;45.182;5.736;2022-09-09T10:55:40;1.75;0.00;0.00
66195;PMS7003;53000;45.182;5.736;2022-09-09T10:58:19;0.25;0.00;0.00
66195;PMS7003;53000;45.182;5.736;2022-09-09T11:00:49;0.00;0.00;0.00
66195;PMS7003;53000;45.182;5.736;2022-09-09T11:03:22;0.00;0.00;0.00
66195;PMS7003;53000;45.182;5.736;2022-09-09T11:08:36;0.00;0.00;0.00
66195;PMS7003;53000;45.182;5.736;2022-09-09T11:11:06;2.00;1.25;1.00
66195;PMS7003;53000;45.182;5.736;2022-09-09T11:13:44;1.00;1.00;0.75
66195;PMS7003;53000;45.182;5.736;2022-09-09T11:18:46;0.00;0.00;0.00
66195;PMS7003;53000;45.182;5.736;2022-09-09T11:21:34;0.00;0.00;0.00
66195;PMS7003;53000;45.182;5.736;2022-09-09T11:24:03;0.25;0.00;0.00
66195;PMS7003;53000;45.182;5.736;2022-09-09T11:26:44;0.50;0.00;0.00
66195;PMS7003;53000;45.182;5.736;2022-09-09T11:32:18;0.00;0.00;0.00
66195;PMS7003;53000;45.182;5.736;2022-09-09T11:37:55;0.00;0.00;0.00
66195;PMS7003;53000;45.182;5.736;2022-09-09T11:40:26;0.00;0.00;0.00
66195;PMS7003;53000;45.182;5.736;2022-09-09T11:43:15;0.75;0.00;0.00
66195;PMS7003;53000;45.182;5.736;2022-09-09T11:45:40;0.00;0.00;0.00
66195;PMS7003;53000;45.182;5.736;2022-09-09T11:48:21;0.00;0.00;0.00
66195;PMS7003;53000;45.182;5.736;2022-09-09T11:53:52;0.00;0.00;0.00
66195;PMS7003;53000;45.182;5.736;2022-09-09T11:59:00;0.00;0.00;0.00
66195;PMS7003;53000;45.182;5.736;2022-09-09T12:01:37;0.00;0.00;0.00
66195;PMS7003;53000;45.182;5.736;2022-09-09T12:09:36;0.00;0.00;0.00
66195;PMS7003;53000;45.182;5.736;2022-09-09T12:12:38;0.25;0.00;0.00
66195;PMS7003;53000;45.182;5.736;2022-09-09T12:17:32;0.00;0.00;0.00
66195;PMS7003;53000;45.182;5.736;2022-09-09T12:20:23;1.00;0.00;0.00
66195;PMS7003;53000;45.182;5.736;2022-09-09T12:23:00;0.00;0.00;0.00
66195;PMS7003;53000;45.182;5.736;2022-09-09T12:28:11;0.00;0.00;0.00
66195;PMS7003;53000;45.182;5.736;2022-09-09T12:33:47;0.00;0.00;0.00
66195;PMS7003;53000;45.182;5.736;2022-09-09T12:36:14;0.00;0.00;0.00
66195;PMS7003;53000;45.182;5.736;2022-09-09T12:38:44;0.00;0.00;0.00
66195;PMS7003;53000;45.182;5.736;2022-09-09T12:41:26;0.00;0.00;0.00
66195;PMS7003;53000;45.182;5.736;2022-09-09T12:44:03;0.00;0.00;0.00
66195;PMS7003;53000;45.182;5.736;2022-09-09T12:46:33;0.00;0.00;0.00
66195;PMS7003;53000;45.182;5.736;2022-09-09T12:49:03;0.00;0.00;0.00
66195;PMS7003;53000;45.182;5.736;2022-09-09T12:51:30;0.00;0.00;0.00
66195;PMS7003;53000;45.182;5.736;2022-09-09T12:53:58;0.00;0.00;0.00
66195;PMS7003;53000;45.182;5.736;2022-09-09T12:56:25;0.00;0.00;0.00
66195;PMS7003;53000;45.182;5.736;2022-09-09T12:58:54;0.00;0.00;0.00
66195;PMS7003;53000;45.182;5.736;2022-09-09T13:01:26;0.00;0.00;0.00
66195;PMS7003;53000;45.182;5.736;2022-09-09T13:03:53;0.00;0.00;0.00
66195;PMS7003;53000;45.182;5.736;2022-09-09T13:06:29;0.00;0.00;0.00
66195;PMS7003;53000;45.182;5.736;2022-09-09T13:08:56;0.00;0.00;0.00
66195;PMS7003;53000;45.182;5.736;2022-09-09T13:11:43;0.00;0.00;0.00
66195;PMS7003;53000;45.182;5.736;2022-09-09T13:14:16;2.00;0.00;0.00
66195;PMS7003;53000;45.182;5.736;2022-09-09T13:16:54;0.00;0.00;0.00
66195;PMS7003;53000;45.182;5.736;2022-09-09T13:19:21;0.00;0.00;0.00
66195;PMS7003;53000;45.182;5.736;2022-09-09T13:21:50;0.00;0.00;0.00
66195;PMS7003;53000;45.182;5.736;2022-09-09T13:27:19;0.00;0.00;0.00
66195;PMS7003;53000;45.182;5.736;2022-09-09T13:29:56;0.00;0.00;0.00
66195;PMS7003;53000;45.182;5.736;2022-09-09T13:32:22;0.00;0.00;0.00
66195;PMS7003;53000;45.182;5.736;2022-09-09T13:34:56;0.00;0.00;0.00
66195;PMS7003;53000;45.182;5.736;2022-09-09T13:40:02;0.25;0.00;0.00
66195;PMS7003;53000;45.182;5.736;2022-09-09T13:42:31;0.00;0.00;0.00
66195;PMS7003;53000;45.182;5.736;2022-09-09T13:45:00;0.00;0.00;0.00
66195;PMS7003;53000;45.182;5.736;2022-09-09T13:47:33;0.00;0.00;0.00
66195;PMS7003;53000;45.182;5.736;2022-09-09T13:50:10;0.00;0.00;0.00
66195;PMS7003;53000;45.182;5.736;2022-09-09T13:52:50;0.00;0.00;0.00
66195;PMS7003;53000;45.182;5.736;2022-09-09T13:55:18;0.00;0.00;0.00
66195;PMS7003;53000;45.182;5.736;2022-09-09T13:57:53;0.00;0.00;0.00
66195;PMS7003;53000;45.182;5.736;2022-09-09T14:00:24;0.00;0.00;0.00
66195;PMS7003;53000;45.182;5.736;2022-09-09T14:02:50;0.00;0.00;0.00
66195;PMS7003;53000;45.182;5.736;2022-09-09T14:05:16;0.00;0.00;0.00
66195;PMS7003;53000;45.182;5.736;2022-09-09T14:07:43;0.00;0.00;0.00
66195;PMS7003;53000;45.182;5.736;2022-09-09T14:10:09;0.00;0.00;0.00
66195;PMS7003;53000;45.182;5.736;2022-09-09T14:12:35;0.00;0.00;0.00
66195;PMS7003;53000;45.182;5.736;2022-09-09T14:15:04;0.00;0.00;0.00
66195;PMS7003;53000;45.182;5.736;2022-09-09T14:17:32;0.00;0.00;0.00
66195;PMS7003;53000;45.182;5.736;2022-09-09T14:19:58;0.00;0.00;0.00
66195;PMS7003;53000;45.182;5.736;2022-09-09T14:22:23;0.00;0.00;0.00
66195;PMS7003;53000;45.182;5.736;2022-09-09T14:24:50;0.00;0.00;0.00
66195;PMS7003;53000;45.182;5.736;2022-09-09T14:27:16;0.00;0.00;0.00
66195;PMS7003;53000;45.182;5.736;2022-09-09T14:29:42;0.00;0.00;0.00
66195;PMS7003;53000;45.182;5.736;2022-09-09T14:32:09;0.00;0.00;0.00
66195;PMS7003;53000;45.182;5.736;2022-09-09T14:34:34;0.00;0.00;0.00
66195;PMS7003;53000;45.182;5.736;2022-09-09T14:37:00;0.00;0.00;0.00
66195;PMS7003;53000;45.182;5.736;2022-09-09T14:39:25;0.00;0.00;0.00
66195;PMS7003;53000;45.182;5.736;2022-09-09T14:41:51;0.00;0.00;0.00
66195;PMS7003;53000;45.182;5.736;2022-09-09T14:44:16;0.00;0.00;0.00
66195;PMS7003;53000;45.182;5.736;2022-09-09T14:46:41;0.00;0.00;0.00
66195;PMS7003;53000;45.182;5.736;2022-09-09T14:49:07;0.00;0.00;0.00
66195;PMS7003;53000;45.182;5.736;2022-09-09T14:51:35;0.00;0.00;0.00
66195;PMS7003;53000;45.182;5.736;2022-09-09T14:54:01;0.00;0.00;0.00
66195;PMS7003;53000;45.182;5.736;2022-09-09T14:56:28;0.00;0.00;0.00
66195;PMS7003;53000;45.182;5.736;2022-09-09T14:58:56;0.00;0.00;0.00
66195;PMS7003;53000;45.182;5.736;2022-09-09T15:01:23;0.00;0.00;0.00
66195;PMS7003;53000;45.182;5.736;2022-09-09T15:03:55;0.00;0.00;0.00
66195;PMS7003;53000;45.182;5.736;2022-09-09T15:06:23;0.00;0.00;0.00
66195;PMS7003;53000;45.182;5.736;2022-09-09T15:08:50;0.50;0.00;0.00
66195;PMS7003;53000;45.182;5.736;2022-09-09T15:11:17;0.00;0.00;0.00
66195;PMS7003;53000;45.182;5.736;2022-09-09T15:13:43;0.00;0.00;0.00
66195;PMS7003;53000;45.182;5.736;2022-09-09T15:16:13;0.00;0.00;0.00
66195;PMS7003;53000;45.182;5.736;2022-09-09T15:18:39;0.00;0.00;0.00
66195;PMS7003;53000;45.182;5.736;2022-09-09T15:21:08;0.00;0.00;0.00
66195;PMS7003;53000;45.182;5.736;2022-09-09T15:23:34;0.00;0.00;0.00
66195;PMS7003;53000;45.182;5.736;2022-09-09T15:26:01;0.00;0.00;0.00
66195;PMS7003;53000;45.182;5.736;2022-09-09T15:28:27;0.00;0.00;0.00
66195;PMS7003;53000;45.182;5.736;2022-09-09T15:30:53;0.00;0.00;0.00
66195;PMS7003;53000;45.182;5.736;2022-09-09T15:33:19;0.00;0.00;0.00
66195;PMS7003;53000;45.182;5.736;2022-09-09T15:35:45;0.00;0.00;0.00
66195;PMS7003;53000;45.182;5.736;2022-09-09T15:38:11;0.00;0.00;0.00
66195;PMS7003;53000;45.182;5.736;2022-09-09T15:40:41;0.00;0.00;0.00
66195;PMS7003;53000;45.182;5.736;2022-09-09T15:43:07;0.00;0.00;0.00
66195;PMS7003;53000;45.182;5.736;2022-09-09T15:45:34;0.00;0.00;0.00
66195;PMS7003;53000;45.182;5.736;2022-09-09T15:48:00;0.00;0.00;0.00
66195;PMS7003;53000;45.182;5.736;2022-09-09T15:50:27;0.00;0.00;0.00
66195;PMS7003;53000;45.182;5.736;2022-09-09T15:52:57;0.00;0.00;0.00
66195;PMS7003;53000;45.182;5.736;2022-09-09T15:55:23;0.00;0.00;0.00
66195;PMS7003;53000;45.182;5.736;2022-09-09T15:57:49;0.00;0.00;0.00
66195;PMS7003;53000;45.182;5.736;2022-09-09T16:00:15;0.00;0.00;0.00
66195;PMS7003;53000;45.182;5.736;2022-09-09T16:02:41;0.00;0.00;0.00
66195;PMS7003;53000;45.182;5.736;2022-09-09T16:05:07;0.00;0.00;0.00
66195;PMS7003;53000;45.182;5.736;2022-09-09T16:07:33;0.00;0.00;0.00
66195;PMS7003;53000;45.182;5.736;2022-09-09T16:09:59;0.00;0.00;0.00
66195;PMS7003;53000;45.182;5.736;2022-09-09T16:12:25;0.00;0.00;0.00
66195;PMS7003;53000;45.182;5.736;2022-09-09T16:14:51;0.00;0.00;0.00
66195;PMS7003;53000;45.182;5.736;2022-09-09T16:17:16;0.00;0.00;0.00
66195;PMS7003;53000;45.182;5.736;2022-09-09T16:19:43;0.50;0.00;0.00
66195;PMS7003;53000;45.182;5.736;2022-09-09T16:22:10;0.00;0.00;0.00
66195;PMS7003;53000;45.182;5.736;2022-09-09T16:24:36;0.00;0.00;0.00
66195;PMS7003;53000;45.182;5.736;2022-09-09T16:27:01;0.00;0.00;0.00
66195;PMS7003;53000;45.182;5.736;2022-09-09T16:29:26;0.00;0.00;0.00
66195;PMS7003;53000;45.182;5.736;2022-09-09T16:31:52;0.25;0.25;0.00
66195;PMS7003;53000;45.182;5.736;2022-09-09T16:34:18;1.50;0.25;0.25
66195;PMS7003;53000;45.182;5.736;2022-09-09T16:36:44;0.00;0.00;0.00
66195;PMS7003;53000;45.182;5.736;2022-09-09T16:39:13;0.50;0.25;0.25
66195;PMS7003;53000;45.182;5.736;2022-09-09T16:41:42;2.00;0.00;0.00
66195;PMS7003;53000;45.182;5.736;2022-09-09T16:44:10;0.75;0.00;0.00
66195;PMS7003;53000;45.182;5.736;2022-09-09T16:46:37;0.00;0.00;0.00
66195;PMS7003;53000;45.182;5.736;2022-09-09T16:49:05;0.00;0.00;0.00
66195;PMS7003;53000;45.182;5.736;2022-09-09T16:51:39;0.00;0.00;0.00
66195;PMS7003;53000;45.182;5.736;2022-09-09T16:54:07;0.50;0.00;0.00